createdAt,value
2022-12-26T00:01:00.575Z,100394.19
2022-12-26T00:03:27.726Z,100394.84
2022-12-26T00:05:54.781Z,100382.22
2022-12-26T00:08:21.810Z,100392.06
2022-12-26T00:10:48.782Z,100398.91
2022-12-26T00:13:38.500Z,100390.50
2022-12-26T00:16:11.521Z,100401.69
2022-12-26T00:18:39.472Z,100381.72
2022-12-26T00:21:07.612Z,100399.78
2022-12-26T00:23:35.263Z,100409.66
2022-12-26T00:26:14.112Z,100396.09
2022-12-26T00:28:41.682Z,100404.63
2022-12-26T00:31:15.160Z,100413.47
2022-12-26T00:33:42.548Z,100404.53
2022-12-26T00:36:18.346Z,100420.75
2022-12-26T00:38:46.183Z,100416.78
2022-12-26T00:41:14.089Z,100426.13
2022-12-26T00:43:41.512Z,100427.06
2022-12-26T00:46:09.175Z,100419.47
2022-12-26T00:48:36.534Z,100438.63
2022-12-26T00:51:04.385Z,100424.22
2022-12-26T00:53:31.705Z,100426.63
2022-12-26T00:55:58.833Z,100426.00
2022-12-26T00:58:26.243Z,100437.16
2022-12-26T01:00:53.905Z,100431.78
2022-12-26T01:03:21.223Z,100424.44
2022-12-26T01:05:50.174Z,100434.31
2022-12-26T01:08:21.059Z,100433.38
2022-12-26T01:10:51.118Z,100441.25
2022-12-26T01:13:18.079Z,100432.41
2022-12-26T01:15:52.198Z,100435.44
2022-12-26T01:18:20.363Z,100429.44
2022-12-26T01:20:48.120Z,100431.97
2022-12-26T01:23:16.303Z,100437.25
2022-12-26T01:26:16.832Z,100435.34
2022-12-26T01:28:30.660Z,100436.78
2022-12-26T01:31:02.161Z,100432.38
2022-12-26T01:33:29.125Z,100443.63
2022-12-26T01:35:57.157Z,100439.44
2022-12-26T01:38:24.331Z,100441.84
2022-12-26T01:41:18.201Z,100443.75
2022-12-26T01:44:01.838Z,100449.22
2022-12-26T01:46:33.053Z,100441.56
2022-12-26T01:49:05.098Z,100436.50
2022-12-26T01:51:34.358Z,100437.25
2022-12-26T01:54:39.040Z,100432.59
2022-12-26T01:56:51.623Z,100446.50
2022-12-26T01:59:22.260Z,100449.13
2022-12-26T02:01:51.166Z,100438.31
2022-12-26T02:04:44.193Z,100447.22
2022-12-26T02:07:11.380Z,100446.81
2022-12-26T02:09:38.501Z,100438.09
2022-12-26T02:12:34.529Z,100439.66
2022-12-26T02:15:18.168Z,100433.44
2022-12-26T02:17:47.053Z,100436.78
2022-12-26T02:20:24.345Z,100438.03
2022-12-26T02:23:35.326Z,100430.97
2022-12-26T02:26:21.240Z,100424.03
2022-12-26T02:29:06.386Z,100427.72
2022-12-26T02:31:41.876Z,100424.38
2022-12-26T02:34:21.693Z,100427.56
2022-12-26T02:37:09.740Z,100430.97
2022-12-26T02:40:08.812Z,100431.78
2022-12-26T02:42:58.294Z,100433.88
2022-12-26T02:45:53.038Z,100438.31
2022-12-26T02:48:31.307Z,100428.94
2022-12-26T02:51:30.408Z,100437.47
2022-12-26T02:54:54.688Z,100424.72
2022-12-26T02:57:43.703Z,100427.25
2022-12-26T03:00:35.298Z,100425.47
2022-12-26T03:03:31.995Z,100420.19
2022-12-26T03:06:39.287Z,100429.16
2022-12-26T03:09:27.054Z,100435.72
2022-12-26T03:12:16.287Z,100430.97
2022-12-26T03:14:48.395Z,100444.63
2022-12-26T03:17:38.754Z,100442.09
2022-12-26T03:20:10.863Z,100446.53
2022-12-26T03:22:50.245Z,100447.50
2022-12-26T03:25:50.027Z,100457.91
2022-12-26T03:28:17.460Z,100455.41
2022-12-26T03:30:50.664Z,100451.34
2022-12-26T03:33:42.354Z,100453.28
2022-12-26T03:36:41.826Z,100451.56
2022-12-26T03:39:48.126Z,100446.44
2022-12-26T03:42:52.697Z,100452.75
2022-12-26T03:45:59.501Z,100450.97
2022-12-26T03:48:59.302Z,100440.19
2022-12-26T03:52:03.165Z,100441.03
2022-12-26T03:54:59.185Z,100431.38
2022-12-26T03:57:50.753Z,100444.97
2022-12-26T04:00:37.147Z,100443.59
2022-12-26T04:03:29.597Z,100458.44
2022-12-26T04:06:19.535Z,100448.03
2022-12-26T04:09:19.265Z,100459.19
2022-12-26T04:12:05.244Z,100460.16
2022-12-26T04:15:12.972Z,100455.59
2022-12-26T04:18:15.865Z,100466.34
2022-12-26T04:21:33.515Z,100463.47
2022-12-26T04:24:24.012Z,100453.19
2022-12-26T04:27:13.261Z,100450.31
2022-12-26T04:29:59.038Z,100452.03
2022-12-26T04:32:50.587Z,100459.91
2022-12-26T04:35:38.215Z,100450.53
2022-12-26T04:38:24.078Z,100455.28
2022-12-26T04:41:14.965Z,100458.75
2022-12-26T04:44:01.002Z,100471.09
2022-12-26T04:46:28.998Z,100469.94
2022-12-26T04:49:15.276Z,100473.41
2022-12-26T04:51:42.369Z,100474.00
2022-12-26T04:54:09.414Z,100460.75
2022-12-26T04:56:36.349Z,100474.53
2022-12-26T04:59:03.718Z,100476.31
2022-12-26T05:01:49.913Z,100478.03
2022-12-26T05:04:39.873Z,100485.69
2022-12-26T05:07:32.782Z,100484.75
2022-12-26T05:10:00.001Z,100490.97
2022-12-26T05:12:27.132Z,100492.25
2022-12-26T05:14:54.718Z,100491.50
2022-12-26T05:17:40.096Z,100495.19
2022-12-26T05:20:27.324Z,100489.28
2022-12-26T05:23:23.677Z,100499.28
2022-12-26T05:26:09.147Z,100502.88
2022-12-26T05:28:42.317Z,100498.56
2022-12-26T05:31:15.248Z,100490.34
2022-12-26T05:34:01.805Z,100488.78
2022-12-26T05:36:47.929Z,100496.25
2022-12-26T05:39:15.253Z,100493.09
2022-12-26T05:41:42.798Z,100498.59
2022-12-26T05:44:10.636Z,100499.44
2022-12-26T05:46:38.627Z,100499.13
2022-12-26T05:49:06.263Z,100493.31
2022-12-26T05:51:34.156Z,100478.06
2022-12-26T05:54:01.537Z,100492.34
2022-12-26T05:56:28.805Z,100493.81
2022-12-26T05:58:57.612Z,100500.44
2022-12-26T06:01:25.453Z,100507.81
2022-12-26T06:03:55.010Z,100500.47
2022-12-26T06:06:23.050Z,100502.34
2022-12-26T06:08:51.818Z,100504.69
2022-12-26T06:11:20.270Z,100503.84
2022-12-26T06:13:47.309Z,100502.81
2022-12-26T06:16:17.002Z,100508.91
2022-12-26T06:21:30.745Z,100511.75
2022-12-26T06:23:57.971Z,100509.84
2022-12-26T06:26:25.061Z,100500.88
2022-12-26T06:28:52.228Z,100506.03
2022-12-26T06:31:22.462Z,100515.63
2022-12-26T06:33:51.808Z,100520.25
2022-12-26T06:36:21.297Z,100522.81
2022-12-26T06:38:49.171Z,100533.13
2022-12-26T06:41:18.578Z,100534.56
2022-12-26T06:43:45.722Z,100534.56
2022-12-26T06:46:21.055Z,100532.06
2022-12-26T06:48:48.422Z,100533.50
2022-12-26T06:51:35.651Z,100545.94
2022-12-26T06:54:03.132Z,100552.13
2022-12-26T06:56:32.061Z,100537.09
2022-12-26T06:59:01.381Z,100552.97
2022-12-26T07:01:30.772Z,100546.03
2022-12-26T07:03:58.732Z,100542.66
2022-12-26T07:06:37.818Z,100549.91
2022-12-26T07:09:13.252Z,100536.09
2022-12-26T07:11:42.815Z,100541.69
2022-12-26T07:14:10.234Z,100545.91
2022-12-26T07:16:38.794Z,100555.06
2022-12-26T07:19:06.223Z,100558.59
2022-12-26T07:21:40.386Z,100561.00
2022-12-26T07:24:19.963Z,100555.97
2022-12-26T07:26:50.918Z,100558.59
2022-12-26T07:29:18.500Z,100552.72
2022-12-26T07:31:46.202Z,100558.72
2022-12-26T07:34:13.553Z,100560.38
2022-12-26T07:36:41.401Z,100554.59
2022-12-26T07:39:14.199Z,100558.72
2022-12-26T07:42:00.995Z,100565.34
2022-12-26T07:44:30.914Z,100567.28
2022-12-26T07:46:58.349Z,100566.47
2022-12-26T07:49:26.024Z,100567.72
2022-12-26T07:51:53.296Z,100565.59
2022-12-26T07:54:20.666Z,100567.06
2022-12-26T07:56:47.839Z,100559.19
2022-12-26T07:59:16.729Z,100562.66
2022-12-26T08:01:44.541Z,100551.84
2022-12-26T08:04:15.409Z,100575.53
2022-12-26T08:06:42.610Z,100564.78
2022-12-26T08:09:17.336Z,100568.59
2022-12-26T08:12:02.201Z,100575.03
2022-12-26T08:14:29.705Z,100582.94
2022-12-26T08:17:11.944Z,100574.19
2022-12-26T08:19:39.068Z,100581.38
2022-12-26T08:22:06.676Z,100580.19
2022-12-26T08:24:33.679Z,100583.78
2022-12-26T08:27:00.743Z,100569.03
2022-12-26T08:29:28.716Z,100590.47
2022-12-26T08:31:55.992Z,100576.13
2022-12-26T08:34:23.385Z,100564.56
2022-12-26T08:36:53.977Z,100578.53
2022-12-26T08:39:21.041Z,100554.97
2022-12-26T08:41:48.163Z,100575.38
2022-12-26T08:44:27.278Z,100574.22
2022-12-26T08:46:56.097Z,100565.81
2022-12-26T08:49:23.179Z,100559.28
2022-12-26T08:51:50.256Z,100572.44
2022-12-26T08:54:20.874Z,100578.09
2022-12-26T08:56:50.636Z,100562.22
2022-12-26T08:59:18.886Z,100570.44
2022-12-26T09:01:46.128Z,100575.47
2022-12-26T09:04:13.477Z,100573.56
2022-12-26T09:06:40.889Z,100575.75
2022-12-26T09:09:13.529Z,100570.28
2022-12-26T09:11:41.651Z,100576.47
2022-12-26T09:14:12.987Z,100572.50
2022-12-26T09:16:49.368Z,100574.06
2022-12-26T09:19:19.197Z,100578.63
2022-12-26T09:21:48.063Z,100579.44
2022-12-26T09:24:17.800Z,100569.22
2022-12-26T09:26:51.481Z,100570.06
2022-12-26T09:29:18.614Z,100560.72
2022-12-26T09:31:45.712Z,100570.56
2022-12-26T09:34:12.794Z,100555.78
2022-12-26T09:36:40.003Z,100559.66
2022-12-26T09:39:11.853Z,100567.22
2022-12-26T09:41:57.366Z,100566.78
2022-12-26T09:44:26.173Z,100566.88
2022-12-26T09:47:11.785Z,100563.63
2022-12-26T09:49:51.308Z,100557.63
2022-12-26T09:52:22.984Z,100556.88
2022-12-26T09:55:25.244Z,100551.75
2022-12-26T09:57:57.804Z,100546.34
2022-12-26T10:00:31.520Z,100543.09
2022-12-26T10:02:59.428Z,100542.50
2022-12-26T10:05:35.242Z,100543.41
2022-12-26T10:08:22.609Z,100534.44
2022-12-26T10:11:12.953Z,100536.69
2022-12-26T10:13:52.839Z,100542.59
2022-12-26T10:16:51.155Z,100545.50
2022-12-26T10:19:32.827Z,100542.63
2022-12-26T10:22:06.058Z,100545.78
2022-12-26T10:24:35.695Z,100547.59
2022-12-26T10:27:12.607Z,100537.97
2022-12-26T10:29:42.354Z,100523.97
2022-12-26T10:32:15.245Z,100522.38
2022-12-26T10:34:45.077Z,100530.56
2022-12-26T10:37:18.432Z,100536.06
2022-12-26T10:39:51.403Z,100528.50
2022-12-26T10:42:36.362Z,100525.72
2022-12-26T10:45:12.791Z,100534.03
2022-12-26T10:47:41.559Z,100524.09
2022-12-26T10:50:27.625Z,100509.44
2022-12-26T10:52:56.874Z,100502.13
2022-12-26T10:55:31.424Z,100497.53
2022-12-26T10:57:59.811Z,100519.38
2022-12-26T11:00:28.423Z,100515.72
2022-12-26T11:03:20.493Z,100521.75
2022-12-26T11:06:10.417Z,100513.00
2022-12-26T11:08:49.722Z,100524.38
2022-12-26T11:11:27.624Z,100522.28
2022-12-26T11:14:01.603Z,100518.31
2022-12-26T11:16:32.583Z,100524.09
2022-12-26T11:18:59.908Z,100521.56
2022-12-26T11:21:29.722Z,100517.84
2022-12-26T11:24:09.247Z,100519.75
2022-12-26T11:26:37.556Z,100498.34
2022-12-26T11:29:18.270Z,100506.44
2022-12-26T11:31:56.816Z,100507.41
2022-12-26T11:34:37.895Z,100508.69
2022-12-26T11:37:06.276Z,100510.59
2022-12-26T11:39:36.509Z,100499.88
2022-12-26T11:42:18.899Z,100515.69
2022-12-26T11:44:55.186Z,100489.03
2022-12-26T11:47:29.600Z,100506.19
2022-12-26T11:50:01.101Z,100517.47
2022-12-26T11:52:37.806Z,100515.69
2022-12-26T11:55:25.103Z,100508.19
2022-12-26T11:57:58.613Z,100513.34
2022-12-26T12:00:27.271Z,100508.03
2022-12-26T12:02:54.858Z,100504.00
2022-12-26T12:05:40.798Z,100521.06
2022-12-26T12:08:26.383Z,100513.09
2022-12-26T12:11:25.496Z,100521.72
2022-12-26T12:14:29.343Z,100506.28
2022-12-26T12:17:04.771Z,100512.59
2022-12-26T12:19:34.376Z,100524.47
2022-12-26T12:22:26.553Z,100523.00
2022-12-26T12:25:17.222Z,100520.72
2022-12-26T12:27:53.622Z,100516.91
2022-12-26T12:30:28.732Z,100531.00
2022-12-26T12:33:22.992Z,100524.47
2022-12-26T12:36:02.038Z,100527.31
2022-12-26T12:38:51.481Z,100530.81
2022-12-26T12:41:34.804Z,100520.59
2022-12-26T12:44:19.788Z,100529.31
2022-12-26T12:47:21.192Z,100531.03
2022-12-26T12:49:59.883Z,100526.81
2022-12-26T12:53:09.769Z,100503.44
2022-12-26T12:55:50.231Z,100502.69
2022-12-26T12:58:42.185Z,100522.16
2022-12-26T13:01:19.672Z,100508.25
2022-12-26T13:03:55.849Z,100516.91
2022-12-26T13:06:26.846Z,100506.81
2022-12-26T13:09:19.642Z,100513.75
2022-12-26T13:12:02.235Z,100520.69
2022-12-26T13:14:47.022Z,100503.53
2022-12-26T13:17:33.325Z,100516.28
2022-12-26T13:20:15.896Z,100518.47
2022-12-26T13:23:15.781Z,100532.25
2022-12-26T13:25:48.336Z,100516.47
2022-12-26T13:28:26.611Z,100495.84
2022-12-26T13:30:55.734Z,100523.94
2022-12-26T13:33:23.318Z,100508.25
2022-12-26T13:36:00.393Z,100524.88
2022-12-26T13:38:58.718Z,100528.38
2022-12-26T13:41:44.932Z,100515.63
2022-12-26T13:47:03.086Z,100524.47
2022-12-26T13:49:36.466Z,100513.72
2022-12-26T13:52:22.812Z,100521.09
2022-12-26T13:54:54.578Z,100510.50
2022-12-26T13:57:50.287Z,100517.50
2022-12-26T14:00:17.171Z,100511.41
2022-12-26T14:03:29.215Z,100519.22
2022-12-26T14:12:43.740Z,100513.84
2022-12-26T14:15:35.717Z,100513.84
2022-12-26T14:21:18.871Z,100504.50
2022-12-26T14:23:56.321Z,100499.44
2022-12-26T14:26:44.321Z,100496.28
2022-12-26T14:29:16.422Z,100502.38
2022-12-26T14:31:44.648Z,100501.72
2022-12-26T14:34:11.603Z,100495.53
2022-12-26T14:36:45.277Z,100488.47
2022-12-26T14:39:32.742Z,100488.03
2022-12-26T14:42:28.170Z,100498.56
2022-12-26T14:44:57.618Z,100473.44
2022-12-26T14:47:47.964Z,100493.72
2022-12-26T14:50:35.661Z,100499.41
2022-12-26T14:53:30.208Z,100494.13
2022-12-26T14:55:57.707Z,100497.72
2022-12-26T14:58:30.558Z,100502.53
2022-12-26T15:01:10.619Z,100493.28
2022-12-26T15:03:50.483Z,100475.56
2022-12-26T15:06:29.548Z,100480.81
2022-12-26T15:09:24.495Z,100475.13
2022-12-26T15:12:13.368Z,100471.66
2022-12-26T15:15:02.040Z,100477.22
2022-12-26T15:17:51.808Z,100468.28
2022-12-26T15:20:31.206Z,100459.00
2022-12-26T15:23:44.115Z,100479.09
2022-12-26T15:26:29.963Z,100477.50
2022-12-26T15:29:09.213Z,100477.28
2022-12-26T15:31:38.527Z,100469.53
2022-12-26T15:34:11.761Z,100477.41
2022-12-26T15:36:58.539Z,100472.38
2022-12-26T15:39:49.337Z,100467.13
2022-12-26T15:45:30.591Z,100470.88
2022-12-26T15:48:07.800Z,100479.50
2022-12-26T15:50:47.166Z,100479.38
2022-12-26T15:53:45.759Z,100469.06
2022-12-26T15:56:31.249Z,100462.13
2022-12-26T15:59:13.073Z,100458.44
2022-12-26T16:01:42.462Z,100442.25
2022-12-26T16:04:26.619Z,100449.53
2022-12-26T16:07:30.556Z,100453.72
2022-12-26T16:09:58.453Z,100462.53
2022-12-26T16:12:29.462Z,100451.94
2022-12-26T16:15:11.744Z,100444.06
2022-12-26T16:17:39.883Z,100446.69
2022-12-26T16:20:43.684Z,100448.88
2022-12-26T16:23:17.319Z,100461.78
2022-12-26T16:25:55.850Z,100462.44
2022-12-26T16:28:30.877Z,100451.78
2022-12-26T16:30:58.790Z,100467.59
2022-12-26T16:33:28.693Z,100462.66
2022-12-26T16:36:00.859Z,100451.78
2022-12-26T16:38:30.983Z,100459.38
2022-12-26T16:41:00.593Z,100456.97
2022-12-26T16:43:30.810Z,100457.69
2022-12-26T16:46:04.966Z,100468.84
2022-12-26T16:48:33.614Z,100454.53
2022-12-26T16:51:08.063Z,100449.28
2022-12-26T16:53:35.247Z,100467.16
2022-12-26T16:56:21.283Z,100456.66
2022-12-26T16:58:51.492Z,100436.53
2022-12-26T17:01:20.488Z,100439.81
2022-12-26T17:03:53.929Z,100438.88
2022-12-26T17:06:30.436Z,100433.09
2022-12-26T17:08:59.264Z,100442.97
2022-12-26T17:11:29.503Z,100443.91
2022-12-26T17:13:57.123Z,100439.63
2022-12-26T17:16:26.615Z,100416.56
2022-12-26T17:18:56.218Z,100432.81
2022-12-26T17:21:34.476Z,100436.69
2022-12-26T17:24:26.417Z,100435.72
2022-12-26T17:27:09.078Z,100426.56
2022-12-26T17:29:37.092Z,100433.31
2022-12-26T17:32:13.659Z,100430.78
2022-12-26T17:34:45.950Z,100423.63
2022-12-26T17:37:25.421Z,100423.53
2022-12-26T17:40:08.561Z,100433.59
2022-12-26T17:42:45.778Z,100430.44
2022-12-26T17:45:18.245Z,100424.94
2022-12-26T17:47:45.918Z,100430.66
2022-12-26T17:50:15.129Z,100435.91
2022-12-26T17:52:47.645Z,100432.53
2022-12-26T17:55:30.401Z,100432.44
2022-12-26T18:03:26.857Z,100433.88
2022-12-26T18:06:00.168Z,100421.41
2022-12-26T18:08:34.920Z,100412.69
2022-12-26T18:11:04.909Z,100384.28
2022-12-26T18:13:33.205Z,100395.13
2022-12-26T18:16:00.813Z,100387.13
2022-12-26T18:18:37.621Z,100395.91
2022-12-26T18:21:07.870Z,100388.94
2022-12-26T18:23:35.301Z,100403.25
2022-12-26T18:26:08.381Z,100396.09
2022-12-26T18:28:37.288Z,100387.16
2022-12-26T18:31:05.165Z,100385.78
2022-12-26T18:33:32.259Z,100382.75
2022-12-26T18:36:04.325Z,100383.28
2022-12-26T18:38:34.776Z,100363.72
2022-12-26T18:41:02.961Z,100386.63
2022-12-26T18:43:29.977Z,100376.63
2022-12-26T18:45:58.214Z,100377.28
2022-12-26T18:48:33.115Z,100377.59
2022-12-26T18:51:06.014Z,100384.44
2022-12-26T18:56:24.438Z,100375.69
2022-12-26T18:58:59.868Z,100366.53
2022-12-26T19:01:27.253Z,100376.97
2022-12-26T19:03:55.180Z,100364.13
2022-12-26T19:06:28.328Z,100377.16
2022-12-26T19:08:56.025Z,100369.59
2022-12-26T19:11:24.111Z,100369.41
2022-12-26T19:13:51.239Z,100354.44
2022-12-26T19:16:18.494Z,100369.91
2022-12-26T19:18:45.664Z,100364.00
2022-12-26T19:21:18.562Z,100359.41
2022-12-26T19:23:48.895Z,100362.34
2022-12-26T19:26:19.986Z,100356.13
2022-12-26T19:28:54.585Z,100351.81
2022-12-26T19:31:22.723Z,100346.88
2022-12-26T19:33:50.780Z,100349.72
2022-12-26T19:36:19.750Z,100336.28
2022-12-26T19:41:27.943Z,100322.69
2022-12-26T19:43:58.940Z,100323.56
2022-12-26T19:46:34.475Z,100320.94
2022-12-26T19:49:02.207Z,100317.69
2022-12-26T19:54:13.357Z,100317.91
2022-12-26T19:56:45.285Z,100322.94
2022-12-26T19:59:19.468Z,100323.38
2022-12-26T20:01:50.036Z,100290.25
2022-12-26T20:04:37.603Z,100317.59
2022-12-26T20:10:05.318Z,100307.59
2022-12-26T20:15:16.559Z,100293.00
2022-12-26T20:17:49.065Z,100296.16
2022-12-26T20:22:58.230Z,100282.94
2022-12-26T20:25:26.025Z,100274.91
2022-12-26T20:27:54.620Z,100292.03
2022-12-26T20:30:21.816Z,100294.13
2022-12-26T20:32:51.842Z,100290.69
2022-12-26T20:35:22.422Z,100288.47
2022-12-26T20:37:50.819Z,100302.44
2022-12-26T20:40:17.999Z,100287.72
2022-12-26T20:42:58.913Z,100290.03
2022-12-26T20:48:09.507Z,100289.69
2022-12-26T20:50:36.527Z,100281.13
2022-12-26T20:53:03.642Z,100286.03
2022-12-26T20:55:30.959Z,100289.00
2022-12-26T20:57:58.417Z,100294.56
2022-12-26T21:00:25.444Z,100293.41
2022-12-26T21:02:53.482Z,100283.75
2022-12-26T21:05:20.663Z,100280.28
2022-12-26T21:07:47.775Z,100291.31
2022-12-26T21:10:16.424Z,100284.59
2022-12-26T21:12:43.596Z,100296.13
2022-12-26T21:15:10.778Z,100283.81
2022-12-26T21:17:43.058Z,100272.50
2022-12-26T21:20:15.847Z,100294.63
2022-12-26T21:22:43.047Z,100289.38
2022-12-26T21:25:10.063Z,100279.72
2022-12-26T21:27:41.529Z,100281.94
2022-12-26T21:30:10.524Z,100273.50
2022-12-26T21:32:37.546Z,100255.94
2022-12-26T21:35:06.604Z,100275.19
2022-12-26T21:37:51.695Z,100268.47
2022-12-26T21:40:22.125Z,100267.81
2022-12-26T21:42:49.266Z,100265.94
2022-12-26T21:45:16.336Z,100264.28
2022-12-26T21:47:43.325Z,100255.00
2022-12-26T21:50:10.537Z,100252.78
2022-12-26T21:52:38.829Z,100242.50
2022-12-26T21:55:24.792Z,100245.34
2022-12-26T21:57:52.225Z,100249.09
2022-12-26T22:00:22.412Z,100250.97
2022-12-26T22:03:08.306Z,100235.72
2022-12-26T22:05:39.416Z,100232.28
2022-12-26T22:08:09.657Z,100245.94
2022-12-26T22:10:56.062Z,100247.81
2022-12-26T22:13:26.907Z,100255.06
2022-12-26T22:16:04.698Z,100243.50
2022-12-26T22:18:33.120Z,100241.06
2022-12-26T22:21:13.340Z,100245.09
2022-12-26T22:23:41.277Z,100230.41
2022-12-26T22:26:10.970Z,100229.53
2022-12-26T22:28:38.703Z,100235.81
2022-12-26T22:31:06.379Z,100228.06
2022-12-26T22:33:33.860Z,100225.53
2022-12-26T22:36:08.095Z,100222.00
2022-12-26T22:38:36.255Z,100200.84
2022-12-26T22:41:03.922Z,100214.63
2022-12-26T22:43:31.812Z,100212.09
2022-12-26T22:45:59.089Z,100206.94
2022-12-26T22:48:26.320Z,100209.47
2022-12-26T22:50:55.112Z,100209.56
2022-12-26T22:53:25.802Z,100209.75
2022-12-26T22:56:04.513Z,100197.69
2022-12-26T22:58:32.521Z,100197.69
2022-12-26T23:01:00.044Z,100188.38
2022-12-26T23:03:27.862Z,100191.69
2022-12-26T23:05:55.498Z,100191.91
2022-12-26T23:08:25.843Z,100188.53
2022-12-26T23:10:57.977Z,100182.13
2022-12-26T23:13:25.792Z,100181.66
2022-12-26T23:15:55.159Z,100182.41
2022-12-26T23:18:49.833Z,100190.47
2022-12-26T23:21:42.149Z,100166.16
2022-12-26T23:24:30.296Z,100169.50
2022-12-26T23:27:27.227Z,100167.81
2022-12-26T23:30:13.391Z,100160.38
2022-12-26T23:32:42.489Z,100164.34
2022-12-26T23:35:10.696Z,100149.88
2022-12-26T23:37:39.015Z,100162.16
2022-12-26T23:40:07.232Z,100152.78
2022-12-26T23:42:34.230Z,100151.22
2022-12-26T23:45:01.217Z,100144.69
2022-12-26T23:47:30.604Z,100146.91
2022-12-26T23:49:57.538Z,100144.19
2022-12-26T23:52:30.015Z,100144.09
2022-12-26T23:54:58.091Z,100138.03
2022-12-26T23:57:25.058Z,100136.97
2022-12-26T23:59:52.313Z,100142.31
